Corona, New York
Current Conditions -  °F | °C
As of 2:51 AM on Tuesday 21 Oct 2014 (Local Time) from KLGA Reporting Station
Overcast Overcast  
Wind Chill: 57°   Ceiling: 14000
Heat Index: 57°   Visibility: 10mi
Dew Point: 44°   Wind: 5mph
Humidity: 62%   Direction: 190°S
Pressure: 29.92"   Gusts: NA
Location:  40.75°N, 73.86°W
Report Text: KLGA 210651Z 19004KT 10SM FEW050 BKN140 OVC200 14/07 A2992 RMK AO2 SLP133 T01390067
Loading
Personal Weather Stations






























Interactive Weather Map
Tropical Storm Tracking
New forecast layout! Learn more

10-Day Weather Forecast

Advertisements
Track Severe Weather on mobile